sensor_id;sensor_type;location;lat;lon;timestamp;pressure;altitude;pressure_sealevel;temperature;humidity
23176;BME280;19910;42.652;23.332;2023-02-21T00:00:52;95043.28;;;3.60;76.40
23176;BME280;19910;42.652;23.332;2023-02-21T00:03:36;95048.91;;;3.63;76.37
23176;BME280;19910;42.652;23.332;2023-02-21T00:06:20;95051.84;;;3.62;77.01
23176;BME280;19910;42.652;23.332;2023-02-21T00:09:04;95039.53;;;3.55;77.53
23176;BME280;19910;42.652;23.332;2023-02-21T00:11:48;95047.88;;;3.49;77.13
23176;BME280;19910;42.652;23.332;2023-02-21T00:14:35;95047.03;;;3.58;76.82
23176;BME280;19910;42.652;23.332;2023-02-21T00:17:19;95047.56;;;3.66;76.73
23176;BME280;19910;42.652;23.332;2023-02-21T00:20:04;95041.88;;;3.72;76.80
23176;BME280;19910;42.652;23.332;2023-02-21T00:22:48;95046.72;;;3.75;76.30
23176;BME280;19910;42.652;23.332;2023-02-21T00:25:32;95047.22;;;3.82;76.54
23176;BME280;19910;42.652;23.332;2023-02-21T00:28:16;95042.16;;;3.76;76.16
23176;BME280;19910;42.652;23.332;2023-02-21T00:31:02;95040.53;;;3.75;76.57
23176;BME280;19910;42.652;23.332;2023-02-21T00:33:47;95019.06;;;3.85;75.96
23176;BME280;19910;42.652;23.332;2023-02-21T00:36:31;95020.44;;;3.82;75.75
23176;BME280;19910;42.652;23.332;2023-02-21T00:39:15;95018.03;;;3.81;75.82
23176;BME280;19910;42.652;23.332;2023-02-21T00:41:59;95022.59;;;3.80;75.77
23176;BME280;19910;42.652;23.332;2023-02-21T00:44:43;95017.50;;;3.74;76.69
23176;BME280;19910;42.652;23.332;2023-02-21T00:47:28;95018.03;;;3.81;76.05
23176;BME280;19910;42.652;23.332;2023-02-21T00:50:13;95022.31;;;3.77;75.86
23176;BME280;19910;42.652;23.332;2023-02-21T00:52:57;95015.34;;;3.81;75.98
23176;BME280;19910;42.652;23.332;2023-02-21T00:55:42;94998.69;;;3.84;75.54
23176;BME280;19910;42.652;23.332;2023-02-21T00:58:25;95005.19;;;3.78;76.55
23176;BME280;19910;42.652;23.332;2023-02-21T01:01:10;95002.25;;;3.74;77.21
23176;BME280;19910;42.652;23.332;2023-02-21T01:03:56;94996.53;;;3.91;77.88
23176;BME280;19910;42.652;23.332;2023-02-21T01:06:41;94986.28;;;3.98;76.60
23176;BME280;19910;42.652;23.332;2023-02-21T01:09:25;94984.41;;;4.04;76.88
23176;BME280;19910;42.652;23.332;2023-02-21T01:12:10;94965.91;;;4.02;76.82
23176;BME280;19910;42.652;23.332;2023-02-21T01:14:54;94969.66;;;4.01;75.52
23176;BME280;19910;42.652;23.332;2023-02-21T01:17:38;94964.84;;;3.98;75.47
23176;BME280;19910;42.652;23.332;2023-02-21T01:20:23;94963.22;;;4.07;75.53
23176;BME280;19910;42.652;23.332;2023-02-21T01:23:08;94955.56;;;3.85;75.66
23176;BME280;19910;42.652;23.332;2023-02-21T01:25:52;94961.22;;;3.79;76.26
23176;BME280;19910;42.652;23.332;2023-02-21T01:28:36;94961.72;;;3.86;75.93
23176;BME280;19910;42.652;23.332;2023-02-21T01:31:20;94952.13;;;3.80;76.08
23176;BME280;19910;42.652;23.332;2023-02-21T01:34:05;94955.56;;;3.85;76.40
23176;BME280;19910;42.652;23.332;2023-02-21T01:36:51;94947.25;;;3.87;75.59
23176;BME280;19910;42.652;23.332;2023-02-21T01:39:36;94962.75;;;3.95;75.81
23176;BME280;19910;42.652;23.332;2023-02-21T01:42:20;94953.16;;;3.84;75.50
23176;BME280;19910;42.652;23.332;2023-02-21T01:45:42;94963.63;;;3.80;75.88
23176;BME280;19910;42.652;23.332;2023-02-21T01:48:26;94955.00;;;3.88;75.61
23176;BME280;19910;42.652;23.332;2023-02-21T01:51:15;94943.22;;;3.84;75.55
23176;BME280;19910;42.652;23.332;2023-02-21T01:54:03;94936.03;;;3.80;75.63
23176;BME280;19910;42.652;23.332;2023-02-21T01:56:47;94942.47;;;3.79;75.45
23176;BME280;19910;42.652;23.332;2023-02-21T01:59:32;94933.91;;;3.82;76.25
23176;BME280;19910;42.652;23.332;2023-02-21T02:02:19;94929.50;;;3.96;75.50
23176;BME280;19910;42.652;23.332;2023-02-21T02:05:07;94924.94;;;3.97;75.31
23176;BME280;19910;42.652;23.332;2023-02-21T02:07:53;94919.81;;;4.00;74.91
23176;BME280;19910;42.652;23.332;2023-02-21T02:10:39;94910.16;;;4.04;75.10
23176;BME280;19910;42.652;23.332;2023-02-21T02:13:33;94928.13;;;3.99;75.18
23176;BME280;19910;42.652;23.332;2023-02-21T02:16:07;94920.63;;;4.01;75.87
23176;BME280;19910;42.652;23.332;2023-02-21T02:18:50;94903.28;;;3.93;75.12
23176;BME280;19910;42.652;23.332;2023-02-21T02:21:50;94903.81;;;3.90;75.58
23176;BME280;19910;42.652;23.332;2023-02-21T02:24:51;94899.56;;;3.84;75.36
23176;BME280;19910;42.652;23.332;2023-02-21T02:33:45;94893.09;;;3.90;75.63
23176;BME280;19910;42.652;23.332;2023-02-21T02:36:19;94900.16;;;3.81;75.49
23176;BME280;19910;42.652;23.332;2023-02-21T02:38:54;94892.84;;;3.86;75.28
23176;BME280;19910;42.652;23.332;2023-02-21T02:41:34;94894.28;;;3.74;75.37
23176;BME280;19910;42.652;23.332;2023-02-21T02:44:11;94905.16;;;3.87;77.06
23176;BME280;19910;42.652;23.332;2023-02-21T02:46:41;94904.66;;;3.85;75.85
23176;BME280;19910;42.652;23.332;2023-02-21T02:49:13;94902.47;;;3.92;76.05
23176;BME280;19910;42.652;23.332;2023-02-21T02:51:44;94893.66;;;3.87;75.32
23176;BME280;19910;42.652;23.332;2023-02-21T02:54:10;94897.91;;;3.93;75.91
23176;BME280;19910;42.652;23.332;2023-02-21T02:56:37;94899.56;;;3.84;75.56
23176;BME280;19910;42.652;23.332;2023-02-21T02:59:07;94897.38;;;3.91;76.32
23176;BME280;19910;42.652;23.332;2023-02-21T03:01:56;94894.69;;;3.91;75.82
23176;BME280;19910;42.652;23.332;2023-02-21T03:04:35;94906.50;;;3.90;76.02
23176;BME280;19910;42.652;23.332;2023-02-21T03:07:13;94904.06;;;3.93;76.34
23176;BME280;19910;42.652;23.332;2023-02-21T03:09:51;94906.22;;;3.91;76.24
23176;BME280;19910;42.652;23.332;2023-02-21T03:12:24;94890.97;;;3.87;75.54
23176;BME280;19910;42.652;23.332;2023-02-21T03:15:01;94901.78;;;3.77;75.58
23176;BME280;19910;42.652;23.332;2023-02-21T03:17:31;94897.72;;;3.79;76.36
23176;BME280;19910;42.652;23.332;2023-02-21T03:20:00;94895.81;;;3.85;75.97
23176;BME280;19910;42.652;23.332;2023-02-21T03:22:30;94901.13;;;3.95;75.75
23176;BME280;19910;42.652;23.332;2023-02-21T03:24:59;94893.91;;;3.90;75.64
23176;BME280;19910;42.652;23.332;2023-02-21T03:27:28;94887.03;;;3.79;75.76
23176;BME280;19910;42.652;23.332;2023-02-21T03:29:58;94885.69;;;3.77;75.44
23176;BME280;19910;42.652;23.332;2023-02-21T03:32:29;94886.78;;;3.76;75.71
23176;BME280;19910;42.652;23.332;2023-02-21T03:34:56;94881.13;;;3.82;75.72
23176;BME280;19910;42.652;23.332;2023-02-21T03:37:31;94875.41;;;3.89;75.16
23176;BME280;19910;42.652;23.332;2023-02-21T03:39:58;94860.91;;;3.95;74.52
23176;BME280;19910;42.652;23.332;2023-02-21T03:42:25;94874.91;;;3.87;75.14
23176;BME280;19910;42.652;23.332;2023-02-21T03:44:52;94874.44;;;3.80;76.24
23176;BME280;19910;42.652;23.332;2023-02-21T03:47:19;94882.03;;;3.63;75.96
23176;BME280;19910;42.652;23.332;2023-02-21T03:49:46;94890.09;;;3.57;76.22
23176;BME280;19910;42.652;23.332;2023-02-21T03:52:13;94882.28;;;3.66;75.58
23176;BME280;19910;42.652;23.332;2023-02-21T03:54:41;94905.31;;;3.67;75.89
23176;BME280;19910;42.652;23.332;2023-02-21T03:57:09;94900.81;;;3.57;76.08
23176;BME280;19910;42.652;23.332;2023-02-21T03:59:36;94882.50;;;3.70;75.69
23176;BME280;19910;42.652;23.332;2023-02-21T04:02:02;94883.00;;;3.77;75.13
23176;BME280;19910;42.652;23.332;2023-02-21T04:04:29;94886.78;;;3.76;75.18
23176;BME280;19910;42.652;23.332;2023-02-21T04:06:56;94902.91;;;3.66;76.10
23176;BME280;19910;42.652;23.332;2023-02-21T04:09:23;94890.34;;;3.61;77.11
23176;BME280;19910;42.652;23.332;2023-02-21T04:11:52;94907.22;;;3.56;77.56
23176;BME280;19910;42.652;23.332;2023-02-21T04:14:19;94910.44;;;3.58;77.97
23176;BME280;19910;42.652;23.332;2023-02-21T04:16:46;94899.78;;;3.53;76.79
23176;BME280;19910;42.652;23.332;2023-02-21T04:19:13;94923.91;;;3.43;76.71
23176;BME280;19910;42.652;23.332;2023-02-21T04:21:40;94920.69;;;3.46;77.28
23176;BME280;19910;42.652;23.332;2023-02-21T04:24:06;94933.81;;;3.43;78.07
23176;BME280;19910;42.652;23.332;2023-02-21T04:26:34;94904.94;;;3.35;77.44
23176;BME280;19910;42.652;23.332;2023-02-21T04:29:03;94936.25;;;3.39;77.25
23176;BME280;19910;42.652;23.332;2023-02-21T04:31:29;94930.59;;;3.46;77.32
23176;BME280;19910;42.652;23.332;2023-02-21T04:33:57;94937.34;;;3.38;78.61
23176;BME280;19910;42.652;23.332;2023-02-21T04:36:24;94930.44;;;3.22;78.82
23176;BME280;19910;42.652;23.332;2023-02-21T04:38:51;94933.09;;;3.27;78.96
23176;BME280;19910;42.652;23.332;2023-02-21T04:41:18;94937.94;;;3.20;79.12
23176;BME280;19910;42.652;23.332;2023-02-21T04:43:45;94944.41;;;3.04;79.53
23176;BME280;19910;42.652;23.332;2023-02-21T04:46:15;94938.84;;;2.85;80.14
23176;BME280;19910;42.652;23.332;2023-02-21T04:48:42;94942.59;;;2.84;80.71
23176;BME280;19910;42.652;23.332;2023-02-21T04:51:09;94942.31;;;2.96;81.34
23176;BME280;19910;42.652;23.332;2023-02-21T04:53:36;94943.31;;;3.10;80.14
23176;BME280;19910;42.652;23.332;2023-02-21T04:56:03;94921.63;;;3.16;80.98
23176;BME280;19910;42.652;23.332;2023-02-21T04:58:30;94921.97;;;3.00;79.91
23176;BME280;19910;42.652;23.332;2023-02-21T05:00:57;94929.47;;;2.98;80.44
23176;BME280;19910;42.652;23.332;2023-02-21T05:03:25;94912.88;;;2.96;80.45
23176;BME280;19910;42.652;23.332;2023-02-21T05:05:52;94915.00;;;2.89;80.11
23176;BME280;19910;42.652;23.332;2023-02-21T05:08:19;94912.91;;;2.80;81.24
23176;BME280;19910;42.652;23.332;2023-02-21T05:10:46;94890.34;;;3.02;79.73
23176;BME280;19910;42.652;23.332;2023-02-21T05:13:13;94901.59;;;3.09;79.97
23176;BME280;19910;42.652;23.332;2023-02-21T05:15:40;94888.69;;;3.16;78.70
23176;BME280;19910;42.652;23.332;2023-02-21T05:18:07;94887.34;;;3.18;78.33
23176;BME280;19910;42.652;23.332;2023-02-21T05:20:35;94875.31;;;3.16;79.35
23176;BME280;19910;42.652;23.332;2023-02-21T05:23:02;94880.03;;;3.39;78.51
23176;BME280;19910;42.652;23.332;2023-02-21T05:25:29;94887.09;;;3.15;78.78
23176;BME280;19910;42.652;23.332;2023-02-21T05:27:55;94875.34;;;3.11;78.96
23176;BME280;19910;42.652;23.332;2023-02-21T05:30:22;94887.13;;;3.05;79.16
23176;BME280;19910;42.652;23.332;2023-02-21T05:32:49;94890.88;;;3.14;78.76
23176;BME280;19910;42.652;23.332;2023-02-21T05:35:17;94880.91;;;3.25;78.10
23176;BME280;19910;42.652;23.332;2023-02-21T05:37:45;94892.91;;;3.37;78.08
23176;BME280;19910;42.652;23.332;2023-02-21T05:40:12;94893.38;;;3.49;78.31
23176;BME280;19910;42.652;23.332;2023-02-21T05:42:41;94874.09;;;4.20;75.21
23176;BME280;19910;42.652;23.332;2023-02-21T05:45:08;94905.31;;;4.93;73.07
23176;BME280;19910;42.652;23.332;2023-02-21T05:47:35;94892.22;;;6.14;70.19
23176;BME280;19910;42.652;23.332;2023-02-21T05:50:03;94906.47;;;6.93;65.44
23176;BME280;19910;42.652;23.332;2023-02-21T05:52:30;94898.97;;;6.90;64.11
23176;BME280;19910;42.652;23.332;2023-02-21T05:54:58;94895.72;;;6.61;64.88
23176;BME280;19910;42.652;23.332;2023-02-21T05:57:25;94916.72;;;6.91;64.33
23176;BME280;19910;42.652;23.332;2023-02-21T05:59:52;94910.16;;;7.25;63.29
23176;BME280;19910;42.652;23.332;2023-02-21T06:02:19;94900.03;;;8.66;61.15
23176;BME280;19910;42.652;23.332;2023-02-21T06:04:46;94900.53;;;10.04;56.44
23176;BME280;19910;42.652;23.332;2023-02-21T06:07:13;94897.22;;;10.41;54.23
23176;BME280;19910;42.652;23.332;2023-02-21T06:09:40;94898.38;;;11.13;52.51
23176;BME280;19910;42.652;23.332;2023-02-21T06:12:08;94894.53;;;11.14;51.28
23176;BME280;19910;42.652;23.332;2023-02-21T06:14:35;94898.59;;;11.37;51.23
23176;BME280;19910;42.652;23.332;2023-02-21T06:17:02;94898.56;;;12.46;49.59
23176;BME280;19910;42.652;23.332;2023-02-21T06:19:28;94898.88;;;11.82;47.85
23176;BME280;19910;42.652;23.332;2023-02-21T06:21:55;94895.75;;;11.63;49.48
23176;BME280;19910;42.652;23.332;2023-02-21T06:24:22;94888.38;;;12.22;48.02
23176;BME280;19910;42.652;23.332;2023-02-21T06:26:49;94891.38;;;11.79;48.81
23176;BME280;19910;42.652;23.332;2023-02-21T06:29:17;94910.75;;;11.31;49.31
23176;BME280;19910;42.652;23.332;2023-02-21T06:31:44;94909.28;;;11.71;48.92
23176;BME280;19910;42.652;23.332;2023-02-21T06:34:11;94898.13;;;12.98;47.04
23176;BME280;19910;42.652;23.332;2023-02-21T06:36:39;94889.84;;;13.64;44.62
23176;BME280;19910;42.652;23.332;2023-02-21T06:39:06;94904.56;;;12.93;44.99
23176;BME280;19910;42.652;23.332;2023-02-21T06:41:33;94907.94;;;12.57;45.77
23176;BME280;19910;42.652;23.332;2023-02-21T06:44:00;94916.75;;;11.45;48.13
23176;BME280;19910;42.652;23.332;2023-02-21T06:46:29;94913.28;;;11.74;48.24
23176;BME280;19910;42.652;23.332;2023-02-21T06:48:56;94911.88;;;11.97;47.31
23176;BME280;19910;42.652;23.332;2023-02-21T06:51:23;94903.41;;;11.31;48.90
23176;BME280;19910;42.652;23.332;2023-02-21T06:53:54;94909.50;;;10.30;51.58
23176;BME280;19910;42.652;23.332;2023-02-21T06:56:21;94926.28;;;11.13;49.56
23176;BME280;19910;42.652;23.332;2023-02-21T06:58:48;94908.78;;;11.02;50.49
23176;BME280;19910;42.652;23.332;2023-02-21T07:01:15;94909.66;;;11.23;49.46
23176;BME280;19910;42.652;23.332;2023-02-21T07:03:44;94898.31;;;10.57;50.80
23176;BME280;19910;42.652;23.332;2023-02-21T07:06:12;94904.97;;;9.99;52.56
23176;BME280;19910;42.652;23.332;2023-02-21T07:08:39;94913.19;;;9.60;53.82
23176;BME280;19910;42.652;23.332;2023-02-21T07:11:06;94916.03;;;9.55;53.79
23176;BME280;19910;42.652;23.332;2023-02-21T07:13:33;94921.31;;;9.20;55.39
23176;BME280;19910;42.652;23.332;2023-02-21T07:16:00;94914.13;;;9.16;55.36
23176;BME280;19910;42.652;23.332;2023-02-21T07:18:27;94913.41;;;8.71;56.62
23176;BME280;19910;42.652;23.332;2023-02-21T07:20:57;94916.47;;;8.78;56.29
23176;BME280;19910;42.652;23.332;2023-02-21T07:23:24;94920.22;;;8.68;56.51
23176;BME280;19910;42.652;23.332;2023-02-21T07:25:50;94911.56;;;8.35;57.82
23176;BME280;19910;42.652;23.332;2023-02-21T07:28:17;94913.13;;;8.50;57.85
23176;BME280;19910;42.652;23.332;2023-02-21T07:30:44;94911.34;;;8.45;57.53
23176;BME280;19910;42.652;23.332;2023-02-21T07:33:12;94908.16;;;8.43;57.80
23176;BME280;19910;42.652;23.332;2023-02-21T07:35:39;94902.69;;;8.57;57.54
23176;BME280;19910;42.652;23.332;2023-02-21T07:38:07;94904.66;;;8.96;56.63
23176;BME280;19910;42.652;23.332;2023-02-21T07:40:33;94900.94;;;8.83;56.53
23176;BME280;19910;42.652;23.332;2023-02-21T07:43:00;94888.94;;;8.98;56.59
23176;BME280;19910;42.652;23.332;2023-02-21T07:45:27;94889.56;;;9.35;56.17
23176;BME280;19910;42.652;23.332;2023-02-21T07:47:54;94883.25;;;9.48;55.67
23176;BME280;19910;42.652;23.332;2023-02-21T07:50:21;94885.69;;;9.18;56.05
23176;BME280;19910;42.652;23.332;2023-02-21T07:52:48;94891.38;;;9.08;56.40
23176;BME280;19910;42.652;23.332;2023-02-21T07:55:16;94876.97;;;9.30;56.44
23176;BME280;19910;42.652;23.332;2023-02-21T07:57:43;94877.09;;;9.16;56.29
23176;BME280;19910;42.652;23.332;2023-02-21T08:00:11;94877.69;;;9.05;56.21
23176;BME280;19910;42.652;23.332;2023-02-21T08:02:37;94880.28;;;8.57;57.25
23176;BME280;19910;42.652;23.332;2023-02-21T08:05:05;94886.75;;;8.47;57.92
23176;BME280;19910;42.652;23.332;2023-02-21T08:07:32;94882.13;;;8.47;58.07
23176;BME280;19910;42.652;23.332;2023-02-21T08:09:58;94874.59;;;8.36;58.71
23176;BME280;19910;42.652;23.332;2023-02-21T08:12:27;94882.00;;;8.30;58.67
23176;BME280;19910;42.652;23.332;2023-02-21T08:14:53;94878.19;;;8.31;58.83
23176;BME280;19910;42.652;23.332;2023-02-21T08:17:20;94879.81;;;8.32;58.80
23176;BME280;19910;42.652;23.332;2023-02-21T08:19:47;94876.09;;;8.28;58.82
23176;BME280;19910;42.652;23.332;2023-02-21T08:22:14;94867.06;;;8.46;58.60
23176;BME280;19910;42.652;23.332;2023-02-21T08:24:40;94890.63;;;8.85;57.97
23176;BME280;19910;42.652;23.332;2023-02-21T08:27:07;94876.66;;;8.92;57.05
23176;BME280;19910;42.652;23.332;2023-02-21T08:29:35;94862.56;;;9.04;56.75
23176;BME280;19910;42.652;23.332;2023-02-21T08:32:04;94869.13;;;9.11;56.49
23176;BME280;19910;42.652;23.332;2023-02-21T08:34:31;94861.41;;;9.27;56.37
23176;BME280;19910;42.652;23.332;2023-02-21T08:36:58;94843.41;;;9.22;56.18
23176;BME280;19910;42.652;23.332;2023-02-21T08:39:25;94860.25;;;9.19;56.26
23176;BME280;19910;42.652;23.332;2023-02-21T08:41:54;94846.41;;;9.69;55.78
23176;BME280;19910;42.652;23.332;2023-02-21T08:44:22;94864.22;;;9.87;54.83
23176;BME280;19910;42.652;23.332;2023-02-21T08:46:50;94856.59;;;10.07;54.07
23176;BME280;19910;42.652;23.332;2023-02-21T08:49:16;94846.56;;;9.98;54.29
23176;BME280;19910;42.652;23.332;2023-02-21T08:51:43;94860.56;;;10.18;54.76
23176;BME280;19910;42.652;23.332;2023-02-21T08:54:10;94855.19;;;10.26;54.47
23176;BME280;19910;42.652;23.332;2023-02-21T08:56:37;94856.28;;;10.17;53.75
23176;BME280;19910;42.652;23.332;2023-02-21T08:59:03;94847.53;;;10.03;54.42
23176;BME280;19910;42.652;23.332;2023-02-21T09:01:33;94849.44;;;10.11;54.10
23176;BME280;19910;42.652;23.332;2023-02-21T09:04:02;94848.47;;;9.98;54.36
23176;BME280;19910;42.652;23.332;2023-02-21T09:06:29;94848.00;;;10.05;54.28
23176;BME280;19910;42.652;23.332;2023-02-21T09:08:56;94842.88;;;10.12;54.04
23176;BME280;19910;42.652;23.332;2023-02-21T09:11:23;94845.81;;;10.24;54.18
23176;BME280;19910;42.652;23.332;2023-02-21T09:13:50;94840.81;;;10.43;53.70
23176;BME280;19910;42.652;23.332;2023-02-21T09:16:19;94831.78;;;10.22;54.19
23176;BME280;19910;42.652;23.332;2023-02-21T09:18:53;94843.25;;;10.36;53.80
23176;BME280;19910;42.652;23.332;2023-02-21T09:21:22;94846.25;;;10.43;53.64
23176;BME280;19910;42.652;23.332;2023-02-21T09:23:52;94824.56;;;10.60;53.51
23176;BME280;19910;42.652;23.332;2023-02-21T09:26:19;94828.66;;;10.66;52.68
23176;BME280;19910;42.652;23.332;2023-02-21T09:28:48;94823.41;;;10.79;52.53
23176;BME280;19910;42.652;23.332;2023-02-21T09:31:15;94823.31;;;10.96;51.77
23176;BME280;19910;42.652;23.332;2023-02-21T09:33:42;94807.94;;;11.47;51.22
23176;BME280;19910;42.652;23.332;2023-02-21T09:36:09;94817.59;;;11.56;50.19
23176;BME280;19910;42.652;23.332;2023-02-21T09:38:37;94814.00;;;11.73;49.77
23176;BME280;19910;42.652;23.332;2023-02-21T09:41:08;94802.34;;;11.72;49.78
23176;BME280;19910;42.652;23.332;2023-02-21T09:43:36;94800.66;;;11.89;49.48
23176;BME280;19910;42.652;23.332;2023-02-21T09:46:07;94798.63;;;12.19;48.61
23176;BME280;19910;42.652;23.332;2023-02-21T09:48:34;94797.19;;;12.54;47.67
23176;BME280;19910;42.652;23.332;2023-02-21T09:51:03;94789.66;;;12.84;46.92
23176;BME280;19910;42.652;23.332;2023-02-21T09:53:33;94785.03;;;12.97;46.18
23176;BME280;19910;42.652;23.332;2023-02-21T09:56:05;94781.44;;;13.29;45.41
23176;BME280;19910;42.652;23.332;2023-02-21T09:58:34;94774.19;;;13.45;44.70
23176;BME280;19910;42.652;23.332;2023-02-21T10:01:07;94775.81;;;13.86;44.23
23176;BME280;19910;42.652;23.332;2023-02-21T10:03:43;94764.03;;;14.10;43.91
23176;BME280;19910;42.652;23.332;2023-02-21T10:06:21;94767.03;;;14.33;43.88
23176;BME280;19910;42.652;23.332;2023-02-21T10:08:56;94753.09;;;14.50;40.88
23176;BME280;19910;42.652;23.332;2023-02-21T10:11:32;94741.34;;;14.93;40.93
23176;BME280;19910;42.652;23.332;2023-02-21T10:14:08;94734.03;;;15.13;40.05
23176;BME280;19910;42.652;23.332;2023-02-21T10:16:44;94732.47;;;15.47;39.64
23176;BME280;19910;42.652;23.332;2023-02-21T10:19:17;94722.88;;;15.88;38.53
23176;BME280;19910;42.652;23.332;2023-02-21T10:21:48;94730.56;;;15.32;40.01
23176;BME280;19910;42.652;23.332;2023-02-21T10:24:19;94725.22;;;15.20;40.39
23176;BME280;19910;42.652;23.332;2023-02-21T10:26:51;94717.41;;;15.53;40.79
23176;BME280;19910;42.652;23.332;2023-02-21T10:29:22;94706.19;;;15.74;39.56
23176;BME280;19910;42.652;23.332;2023-02-21T10:31:54;94724.16;;;15.40;39.60
23176;BME280;19910;42.652;23.332;2023-02-21T10:34:25;94701.97;;;15.42;39.75
23176;BME280;19910;42.652;23.332;2023-02-21T10:36:53;94702.00;;;15.45;39.14
23176;BME280;19910;42.652;23.332;2023-02-21T10:39:24;94699.13;;;15.73;38.93
23176;BME280;19910;42.652;23.332;2023-02-21T10:41:57;94691.88;;;16.00;38.01
23176;BME280;19910;42.652;23.332;2023-02-21T10:44:27;94683.13;;;15.91;38.10
23176;BME280;19910;42.652;23.332;2023-02-21T10:47:00;94680.25;;;16.03;36.60
23176;BME280;19910;42.652;23.332;2023-02-21T10:49:32;94681.94;;;16.73;32.91
23176;BME280;19910;42.652;23.332;2023-02-21T10:52:08;94665.84;;;17.17;32.27
23176;BME280;19910;42.652;23.332;2023-02-21T10:54:35;94662.03;;;17.25;30.79
23176;BME280;19910;42.652;23.332;2023-02-21T10:57:06;94655.56;;;17.36;30.75
23176;BME280;19910;42.652;23.332;2023-02-21T10:59:36;94649.63;;;17.31;30.81
23176;BME280;19910;42.652;23.332;2023-02-21T11:02:28;94639.50;;;17.35;30.29
23176;BME280;19910;42.652;23.332;2023-02-21T11:05:07;94643.22;;;17.20;31.26
23176;BME280;19910;42.652;23.332;2023-02-21T11:07:34;94632.72;;;17.55;30.61
23176;BME280;19910;42.652;23.332;2023-02-21T11:10:02;94628.63;;;17.68;30.92
23176;BME280;19910;42.652;23.332;2023-02-21T11:12:32;94624.03;;;17.50;30.24
23176;BME280;19910;42.652;23.332;2023-02-21T11:15:09;94628.59;;;17.38;30.44
23176;BME280;19910;42.652;23.332;2023-02-21T11:17:41;94616.22;;;17.48;30.02
23176;BME280;19910;42.652;23.332;2023-02-21T11:20:16;94605.06;;;17.34;30.68
23176;BME280;19910;42.652;23.332;2023-02-21T11:22:45;94610.94;;;17.36;30.68
23176;BME280;19910;42.652;23.332;2023-02-21T11:25:22;94611.66;;;17.59;30.36
23176;BME280;19910;42.652;23.332;2023-02-21T11:28:04;94602.66;;;17.92;31.15
23176;BME280;19910;42.652;23.332;2023-02-21T11:30:33;94605.03;;;17.60;30.69
23176;BME280;19910;42.652;23.332;2023-02-21T11:33:01;94597.03;;;17.78;30.61
23176;BME280;19910;42.652;23.332;2023-02-21T11:35:32;94595.75;;;18.02;31.52
23176;BME280;19910;42.652;23.332;2023-02-21T11:38:01;94588.75;;;18.08;30.29
23176;BME280;19910;42.652;23.332;2023-02-21T11:40:32;94592.16;;;17.98;30.03
23176;BME280;19910;42.652;23.332;2023-02-21T11:43:17;94587.44;;;17.61;30.14
23176;BME280;19910;42.652;23.332;2023-02-21T11:45:52;94574.44;;;17.25;30.60
23176;BME280;19910;42.652;23.332;2023-02-21T11:48:26;94569.31;;;17.53;30.96
23176;BME280;19910;42.652;23.332;2023-02-21T11:50:59;94572.53;;;17.59;30.71
23176;BME280;19910;42.652;23.332;2023-02-21T11:53:33;94561.34;;;17.41;31.19
23176;BME280;19910;42.652;23.332;2023-02-21T11:56:18;94568.16;;;17.54;31.66
23176;BME280;19910;42.652;23.332;2023-02-21T11:58:55;94559.06;;;17.47;30.60
23176;BME280;19910;42.652;23.332;2023-02-21T12:01:27;94560.13;;;17.68;30.92
23176;BME280;19910;42.652;23.332;2023-02-21T12:04:07;94553.34;;;17.92;30.67
23176;BME280;19910;42.652;23.332;2023-02-21T12:06:41;94551.66;;;18.21;30.79
23176;BME280;19910;42.652;23.332;2023-02-21T12:09:11;94543.81;;;18.16;30.68
23176;BME280;19910;42.652;23.332;2023-02-21T12:11:49;94540.09;;;17.98;30.86
23176;BME280;19910;42.652;23.332;2023-02-21T12:14:43;94535.16;;;17.73;31.27
23176;BME280;19910;42.652;23.332;2023-02-21T12:17:31;94535.78;;;17.63;31.51
23176;BME280;19910;42.652;23.332;2023-02-21T12:20:26;94527.16;;;17.61;32.01
23176;BME280;19910;42.652;23.332;2023-02-21T12:23:06;94516.63;;;17.63;31.78
23176;BME280;19910;42.652;23.332;2023-02-21T12:25:43;94512.78;;;17.38;32.08
23176;BME280;19910;42.652;23.332;2023-02-21T12:28:20;94511.47;;;17.25;32.53
23176;BME280;19910;42.652;23.332;2023-02-21T12:31:10;94511.69;;;17.13;32.39
23176;BME280;19910;42.652;23.332;2023-02-21T12:33:44;94509.38;;;17.15;32.47
23176;BME280;19910;42.652;23.332;2023-02-21T12:36:21;94511.69;;;17.13;32.27
23176;BME280;19910;42.652;23.332;2023-02-21T12:38:57;94501.59;;;17.17;33.05
23176;BME280;19910;42.652;23.332;2023-02-21T12:41:50;94505.72;;;17.33;32.64
23176;BME280;19910;42.652;23.332;2023-02-21T12:44:23;94502.66;;;17.42;32.70
23176;BME280;19910;42.652;23.332;2023-02-21T12:46:58;94504.00;;;17.55;32.35
23176;BME280;19910;42.652;23.332;2023-02-21T12:49:41;94504.56;;;17.68;32.23
23176;BME280;19910;42.652;23.332;2023-02-21T12:52:14;94499.25;;;17.52;32.10
23176;BME280;19910;42.652;23.332;2023-02-21T12:54:45;94495.16;;;17.69;32.42
23176;BME280;19910;42.652;23.332;2023-02-21T12:57:14;94486.50;;;17.63;31.85
23176;BME280;19910;42.652;23.332;2023-02-21T12:59:54;94493.63;;;17.71;32.33
23176;BME280;19910;42.652;23.332;2023-02-21T13:02:39;94496.56;;;17.93;32.48
23176;BME280;19910;42.652;23.332;2023-02-21T13:05:12;94486.16;;;18.09;31.59
23176;BME280;19910;42.652;23.332;2023-02-21T13:07:44;94491.00;;;18.26;31.17
23176;BME280;19910;42.652;23.332;2023-02-21T13:10:17;94492.38;;;18.06;30.97
23176;BME280;19910;42.652;23.332;2023-02-21T13:12:49;94486.41;;;17.56;31.49
23176;BME280;19910;42.652;23.332;2023-02-21T13:15:21;94483.75;;;17.63;31.57
23176;BME280;19910;42.652;23.332;2023-02-21T13:17:56;94479.56;;;17.73;31.70
23176;BME280;19910;42.652;23.332;2023-02-21T13:20:26;94476.88;;;17.80;31.02
23176;BME280;19910;42.652;23.332;2023-02-21T13:26:19;94471.03;;;17.82;31.42
23176;BME280;19910;42.652;23.332;2023-02-21T13:28:51;94460.84;;;17.82;30.80
23176;BME280;19910;42.652;23.332;2023-02-21T13:31:20;94456.56;;;17.85;31.02
23176;BME280;19910;42.652;23.332;2023-02-21T13:33:51;94460.06;;;17.82;31.62